sensor_id;sensor_type;location;lat;lon;timestamp;pressure;altitude;pressure_sealevel;temperature;humidity
8451;BME280;4262;50.980;13.892;2022-09-17T08:53:32;50768.44;;;-142.97;78.35
8451;BME280;4262;50.980;13.892;2022-09-17T08:56:09;50791.84;;;-142.97;77.86
8451;BME280;4262;50.980;13.892;2022-09-17T08:58:52;50772.34;;;-142.97;76.34
8451;BME280;4262;50.980;13.892;2022-09-17T09:01:31;50748.94;;;-142.97;74.96
8451;BME280;4262;50.980;13.892;2022-09-17T09:04:11;50770.38;;;-142.97;73.26
8451;BME280;4262;50.980;13.892;2022-09-17T09:06:47;50735.28;;;-142.97;70.86
8451;BME280;4262;50.980;13.892;2022-09-17T09:09:17;50774.28;;;-142.97;70.10
8451;BME280;4262;50.980;13.892;2022-09-17T09:11:47;50768.44;;;-142.97;70.57
8451;BME280;4262;50.980;13.892;2022-09-17T09:14:21;50778.19;;;-142.97;69.38
8451;BME280;4262;50.980;13.892;2022-09-17T09:16:51;50762.59;;;-142.97;69.36
8451;BME280;4262;50.980;13.892;2022-09-17T09:19:22;50748.94;;;-142.97;68.44
8451;BME280;4262;50.980;13.892;2022-09-17T09:22:00;50743.09;;;-142.97;64.60
8451;BME280;4262;50.980;13.892;2022-09-17T09:24:38;50723.59;;;-142.97;63.57
8451;BME280;4262;50.980;13.892;2022-09-17T09:27:14;50774.28;;;-142.97;63.55
8451;BME280;4262;50.980;13.892;2022-09-17T09:29:47;50809.38;;;-142.97;63.37
8451;BME280;4262;50.980;13.892;2022-09-17T09:32:25;50834.72;;;-142.97;64.93
8451;BME280;4262;50.980;13.892;2022-09-17T09:34:54;50762.59;;;-142.97;64.14
8451;BME280;4262;50.980;13.892;2022-09-17T09:37:24;50748.94;;;-142.97;64.14
8451;BME280;4262;50.980;13.892;2022-09-17T09:39:57;50723.59;;;-142.97;62.39
8451;BME280;4262;50.980;13.892;2022-09-17T09:42:28;50768.44;;;-142.97;60.83
8451;BME280;4262;50.980;13.892;2022-09-17T09:44:57;50758.69;;;-142.97;61.17
8451;BME280;4262;50.980;13.892;2022-09-17T09:47:44;50768.44;;;-142.97;60.31
8451;BME280;4262;50.980;13.892;2022-09-17T09:50:32;50739.19;;;-142.97;58.85
8451;BME280;4262;50.980;13.892;2022-09-17T09:53:11;50708.00;;;-142.97;58.02
8451;BME280;4262;50.980;13.892;2022-09-17T09:56:00;50733.34;;;-142.97;57.75
8451;BME280;4262;50.980;13.892;2022-09-17T09:58:33;50735.28;;;-142.97;57.98
8451;BME280;4262;50.980;13.892;2022-09-17T10:01:00;50684.59;;;-142.97;57.24
8451;BME280;4262;50.980;13.892;2022-09-17T10:03:29;50499.34;;;-142.97;54.41
8451;BME280;4262;50.980;13.892;2022-09-17T10:05:58;50608.53;;;-142.97;51.56
8451;BME280;4262;50.980;13.892;2022-09-17T10:08:26;50711.88;;;-142.97;50.82
8451;BME280;4262;50.980;13.892;2022-09-17T10:10:57;50711.88;;;-142.97;52.16
8451;BME280;4262;50.980;13.892;2022-09-17T10:13:26;50719.69;;;-142.97;52.50
8451;BME280;4262;50.980;13.892;2022-09-17T10:15:53;50762.59;;;-142.97;52.55
8451;BME280;4262;50.980;13.892;2022-09-17T10:18:21;50729.44;;;-142.97;54.02
8451;BME280;4262;50.980;13.892;2022-09-17T10:20:53;50772.34;;;-142.97;55.41
8451;BME280;4262;50.980;13.892;2022-09-17T10:23:21;50778.19;;;-142.97;55.18
8451;BME280;4262;50.980;13.892;2022-09-17T10:25:48;50762.59;;;-142.97;55.69
8451;BME280;4262;50.980;13.892;2022-09-17T10:28:35;50774.28;;;-142.97;56.84
8451;BME280;4262;50.980;13.892;2022-09-17T10:31:05;50762.59;;;-142.97;57.45
8451;BME280;4262;50.980;13.892;2022-09-17T10:33:38;50782.09;;;-142.97;57.11
8451;BME280;4262;50.980;13.892;2022-09-17T10:36:06;50780.13;;;-142.97;57.75
8451;BME280;4262;50.980;13.892;2022-09-17T10:38:36;50782.09;;;-142.97;62.26
8451;BME280;4262;50.980;13.892;2022-09-17T10:41:09;50758.69;;;-142.97;64.02
8451;BME280;4262;50.980;13.892;2022-09-17T10:43:39;50784.03;;;-142.97;64.50
8451;BME280;4262;50.980;13.892;2022-09-17T10:46:08;50741.13;;;-142.97;64.99
8451;BME280;4262;50.980;13.892;2022-09-17T10:48:40;50713.84;;;-142.97;64.94
8451;BME280;4262;50.980;13.892;2022-09-17T10:51:08;50711.88;;;-142.97;63.81
8451;BME280;4262;50.980;13.892;2022-09-17T10:53:55;50752.84;;;-142.97;62.31
8451;BME280;4262;50.980;13.892;2022-09-17T10:56:30;50789.88;;;-142.97;61.17
8451;BME280;4262;50.980;13.892;2022-09-17T10:59:07;50748.94;;;-142.97;60.74
8451;BME280;4262;50.980;13.892;2022-09-17T11:01:50;50760.63;;;-142.97;63.40
8451;BME280;4262;50.980;13.892;2022-09-17T11:04:28;50741.13;;;-142.97;63.47
8451;BME280;4262;50.980;13.892;2022-09-17T11:09:53;50702.13;;;-142.97;60.03
8451;BME280;4262;50.980;13.892;2022-09-17T11:12:31;50626.09;;;-142.97;57.74
8451;BME280;4262;50.980;13.892;2022-09-17T11:15:11;50667.03;;;-142.97;56.65
8451;BME280;4262;50.980;13.892;2022-09-17T11:17:54;50559.81;;;-142.97;54.24
8451;BME280;4262;50.980;13.892;2022-09-17T11:20:42;50651.44;;;-142.97;53.05
8451;BME280;4262;50.980;13.892;2022-09-17T11:23:24;50591.00;;;-142.97;51.31
8451;BME280;4262;50.980;13.892;2022-09-17T11:25:54;50709.94;;;-142.97;49.39
8451;BME280;4262;50.980;13.892;2022-09-17T11:28:42;50723.59;;;-142.97;51.56
8451;BME280;4262;50.980;13.892;2022-09-17T11:31:23;50692.38;;;-142.97;52.53
8451;BME280;4262;50.980;13.892;2022-09-17T11:34:09;50772.34;;;-142.97;54.18
8451;BME280;4262;50.980;13.892;2022-09-17T11:36:47;50780.13;;;-142.97;56.87
8451;BME280;4262;50.980;13.892;2022-09-17T11:39:17;50774.28;;;-142.97;57.92
8451;BME280;4262;50.980;13.892;2022-09-17T11:41:47;50778.19;;;-142.97;59.19
8451;BME280;4262;50.980;13.892;2022-09-17T11:44:22;50764.53;;;-142.97;60.61
8451;BME280;4262;50.980;13.892;2022-09-17T11:46:55;50735.28;;;-142.97;60.49
8451;BME280;4262;50.980;13.892;2022-09-17T11:49:27;50594.91;;;-142.97;59.58
8451;BME280;4262;50.980;13.892;2022-09-17T11:52:01;50520.81;;;-142.97;55.88
8451;BME280;4262;50.980;13.892;2022-09-17T11:54:32;50474.00;;;-142.97;53.22
8451;BME280;4262;50.980;13.892;2022-09-17T11:57:05;50709.94;;;-142.97;51.85
8451;BME280;4262;50.980;13.892;2022-09-17T11:59:39;50758.69;;;-142.97;52.73
8451;BME280;4262;50.980;13.892;2022-09-17T12:02:16;50748.94;;;-142.97;55.93
8451;BME280;4262;50.980;13.892;2022-09-17T12:04:48;50774.28;;;-142.97;60.29
8451;BME280;4262;50.980;13.892;2022-09-17T12:07:27;50760.63;;;-142.97;64.09
8451;BME280;4262;50.980;13.892;2022-09-17T12:09:59;50809.38;;;-142.97;64.20
8451;BME280;4262;50.980;13.892;2022-09-17T12:12:29;50809.38;;;-142.97;64.92
8451;BME280;4262;50.980;13.892;2022-09-17T12:15:01;50758.69;;;-142.97;64.85
8451;BME280;4262;50.980;13.892;2022-09-17T12:17:36;50739.19;;;-142.97;65.11
8451;BME280;4262;50.980;13.892;2022-09-17T12:20:07;50784.03;;;-142.97;64.42
8451;BME280;4262;50.980;13.892;2022-09-17T12:22:42;50793.78;;;-142.97;63.64
8451;BME280;4262;50.980;13.892;2022-09-17T12:25:11;50727.50;;;-142.97;63.23
8451;BME280;4262;50.980;13.892;2022-09-17T12:27:43;50750.88;;;-142.97;63.18
8451;BME280;4262;50.980;13.892;2022-09-17T12:30:12;50719.69;;;-142.97;64.58
8451;BME280;4262;50.980;13.892;2022-09-17T12:32:58;50748.94;;;-142.97;63.68
8451;BME280;4262;50.980;13.892;2022-09-17T12:35:36;50762.59;;;-142.97;62.48
8451;BME280;4262;50.980;13.892;2022-09-17T12:38:17;50780.13;;;-142.97;62.14
8451;BME280;4262;50.980;13.892;2022-09-17T12:40:51;50721.63;;;-142.97;61.27
8451;BME280;4262;50.980;13.892;2022-09-17T12:43:39;50770.38;;;-142.97;61.68
8451;BME280;4262;50.980;13.892;2022-09-17T12:46:18;50787.94;;;-142.97;60.82
8451;BME280;4262;50.980;13.892;2022-09-17T12:49:06;50782.09;;;-142.97;62.07
8451;BME280;4262;50.980;13.892;2022-09-17T12:51:49;50772.34;;;-142.97;61.74
8451;BME280;4262;50.980;13.892;2022-09-17T12:54:32;50780.13;;;-142.97;62.82
8451;BME280;4262;50.980;13.892;2022-09-17T12:57:09;50791.84;;;-142.97;65.10
8451;BME280;4262;50.980;13.892;2022-09-17T12:59:44;50762.59;;;-142.97;64.98
8451;BME280;4262;50.980;13.892;2022-09-17T13:02:17;50748.94;;;-142.97;63.54
8451;BME280;4262;50.980;13.892;2022-09-17T13:05:27;50723.59;;;-142.97;63.30
8451;BME280;4262;50.980;13.892;2022-09-17T13:08:23;50752.84;;;-142.97;62.19
8451;BME280;4262;50.980;13.892;2022-09-17T13:14:16;50717.75;;;-142.97;58.49
8451;BME280;4262;50.980;13.892;2022-09-17T13:16:46;50626.09;;;-142.97;57.32
8451;BME280;4262;50.980;13.892;2022-09-17T13:19:27;50575.41;;;-142.97;55.06
8451;BME280;4262;50.980;13.892;2022-09-17T13:22:03;50587.09;;;-142.97;51.96
8451;BME280;4262;50.980;13.892;2022-09-17T13:24:32;50548.09;;;-142.97;50.54
8451;BME280;4262;50.980;13.892;2022-09-17T13:27:01;50750.88;;;-142.97;50.48
8451;BME280;4262;50.980;13.892;2022-09-17T13:29:59;50735.28;;;-142.97;51.88
8451;BME280;4262;50.980;13.892;2022-09-17T13:32:52;50809.38;;;-142.97;51.60
8451;BME280;4262;50.980;13.892;2022-09-17T13:35:48;50797.69;;;-142.97;53.36
8451;BME280;4262;50.980;13.892;2022-09-17T13:38:17;50762.59;;;-142.97;59.33
8451;BME280;4262;50.980;13.892;2022-09-17T13:40:45;50809.38;;;-142.97;64.87
8451;BME280;4262;50.980;13.892;2022-09-17T13:43:15;50616.34;;;-142.97;65.42
8451;BME280;4262;50.980;13.892;2022-09-17T13:46:06;50768.44;;;-142.97;65.40
8451;BME280;4262;50.980;13.892;2022-09-17T13:48:42;50563.69;;;-142.97;62.18
8451;BME280;4262;50.980;13.892;2022-09-17T13:51:45;50754.78;;;-142.97;61.61
8451;BME280;4262;50.980;13.892;2022-09-17T13:54:14;50758.69;;;-142.97;60.30
8451;BME280;4262;50.980;13.892;2022-09-17T13:56:44;50585.16;;;-142.97;60.43
8451;BME280;4262;50.980;13.892;2022-09-17T13:59:15;50630.00;;;-142.97;56.08
8451;BME280;4262;50.980;13.892;2022-09-17T14:02:00;50594.91;;;-142.97;57.17
8451;BME280;4262;50.980;13.892;2022-09-17T14:07:31;50630.00;;;-142.97;55.21
8451;BME280;4262;50.980;13.892;2022-09-17T14:10:00;50628.03;;;-142.97;54.45
8451;BME280;4262;50.980;13.892;2022-09-17T14:15:53;50631.94;;;-142.97;52.99
8451;BME280;4262;50.980;13.892;2022-09-17T14:21:24;50637.78;;;-142.97;48.92
8451;BME280;4262;50.980;13.892;2022-09-17T14:23:55;50661.19;;;-142.97;49.56
8451;BME280;4262;50.980;13.892;2022-09-17T14:26:38;50665.09;;;-142.97;49.41
8451;BME280;4262;50.980;13.892;2022-09-17T14:29:15;50698.25;;;-142.97;49.47
8451;BME280;4262;50.980;13.892;2022-09-17T14:31:46;50680.69;;;-142.97;50.02
8451;BME280;4262;50.980;13.892;2022-09-17T14:34:18;50665.09;;;-142.97;51.45
8451;BME280;4262;50.980;13.892;2022-09-17T14:36:46;50700.19;;;-142.97;48.77
8451;BME280;4262;50.980;13.892;2022-09-17T14:39:19;50785.97;;;-142.97;50.31
8451;BME280;4262;50.980;13.892;2022-09-17T14:41:49;50719.69;;;-142.97;49.21
8451;BME280;4262;50.980;13.892;2022-09-17T14:44:20;50717.75;;;-142.97;49.21
8451;BME280;4262;50.980;13.892;2022-09-17T14:46:51;50739.19;;;-142.97;50.13
8451;BME280;4262;50.980;13.892;2022-09-17T14:49:21;50737.25;;;-142.97;48.16
8451;BME280;4262;50.980;13.892;2022-09-17T14:51:48;50762.59;;;-142.97;49.09
8451;BME280;4262;50.980;13.892;2022-09-17T14:54:17;50756.75;;;-142.97;50.12
8451;BME280;4262;50.980;13.892;2022-09-17T14:56:50;50793.78;;;-142.97;50.18
8451;BME280;4262;50.980;13.892;2022-09-17T14:59:26;50774.28;;;-142.97;49.42
8451;BME280;4262;50.980;13.892;2022-09-17T15:01:54;50770.38;;;-142.97;48.42
8451;BME280;4262;50.980;13.892;2022-09-17T15:04:23;50754.78;;;-142.97;49.54
8451;BME280;4262;50.980;13.892;2022-09-17T15:06:50;50758.69;;;-142.97;49.94
8451;BME280;4262;50.980;13.892;2022-09-17T15:09:22;50782.09;;;-142.97;49.09
8451;BME280;4262;50.980;13.892;2022-09-17T15:11:52;50782.09;;;-142.97;48.11
8451;BME280;4262;50.980;13.892;2022-09-17T15:14:22;50760.63;;;-142.97;48.89
8451;BME280;4262;50.980;13.892;2022-09-17T15:16:54;50752.84;;;-142.97;49.65
8451;BME280;4262;50.980;13.892;2022-09-17T15:19:23;50784.03;;;-142.97;48.56
8451;BME280;4262;50.980;13.892;2022-09-17T15:21:54;50772.34;;;-142.97;49.18
8451;BME280;4262;50.980;13.892;2022-09-17T15:24:31;50754.78;;;-142.97;49.04
8451;BME280;4262;50.980;13.892;2022-09-17T15:27:07;50754.78;;;-142.97;49.62
8451;BME280;4262;50.980;13.892;2022-09-17T15:29:38;50739.19;;;-142.97;48.85
8451;BME280;4262;50.980;13.892;2022-09-17T15:32:08;50776.25;;;-142.97;49.07
8451;BME280;4262;50.980;13.892;2022-09-17T15:34:37;50789.88;;;-142.97;50.04
8451;BME280;4262;50.980;13.892;2022-09-17T15:37:04;50754.78;;;-142.97;49.69
8451;BME280;4262;50.980;13.892;2022-09-17T15:39:38;50762.59;;;-142.97;49.99
8451;BME280;4262;50.980;13.892;2022-09-17T15:42:16;50797.69;;;-142.97;50.57
8451;BME280;4262;50.980;13.892;2022-09-17T15:44:43;50784.03;;;-142.97;50.32
8451;BME280;4262;50.980;13.892;2022-09-17T15:47:36;50801.59;;;-142.97;49.43
8451;BME280;4262;50.980;13.892;2022-09-17T15:50:16;50762.59;;;-142.97;49.02
8451;BME280;4262;50.980;13.892;2022-09-17T15:52:45;50768.44;;;-142.97;49.98
8451;BME280;4262;50.980;13.892;2022-09-17T15:55:34;50784.03;;;-142.97;49.58
8451;BME280;4262;50.980;13.892;2022-09-17T15:58:05;50778.19;;;-142.97;48.36
8451;BME280;4262;50.980;13.892;2022-09-17T16:00:45;50752.84;;;-142.97;48.18
8451;BME280;4262;50.980;13.892;2022-09-17T16:06:36;50741.13;;;-142.97;46.25
8451;BME280;4262;50.980;13.892;2022-09-17T16:09:43;50743.09;;;-142.97;46.19
8451;BME280;4262;50.980;13.892;2022-09-17T16:12:14;50805.50;;;-142.97;46.46
8451;BME280;4262;50.980;13.892;2022-09-17T16:14:45;50735.28;;;-142.97;45.45
8451;BME280;4262;50.980;13.892;2022-09-17T16:17:41;50758.69;;;-142.97;46.70
8451;BME280;4262;50.980;13.892;2022-09-17T16:20:13;50778.19;;;-142.97;46.95
8451;BME280;4262;50.980;13.892;2022-09-17T16:22:40;50772.34;;;-142.97;47.58
8451;BME280;4262;50.980;13.892;2022-09-17T16:25:09;50774.28;;;-142.97;48.30
8451;BME280;4262;50.980;13.892;2022-09-17T16:27:43;50768.44;;;-142.97;47.17
8451;BME280;4262;50.980;13.892;2022-09-17T16:30:14;50809.38;;;-142.97;48.66
8451;BME280;4262;50.980;13.892;2022-09-17T16:32:41;50785.97;;;-142.97;47.53
8451;BME280;4262;50.980;13.892;2022-09-17T16:35:11;50770.38;;;-142.97;48.08
8451;BME280;4262;50.980;13.892;2022-09-17T16:37:37;50784.03;;;-142.97;48.35
8451;BME280;4262;50.980;13.892;2022-09-17T16:40:05;50772.34;;;-142.97;47.62
8451;BME280;4262;50.980;13.892;2022-09-17T16:42:34;50776.25;;;-142.97;47.90
8451;BME280;4262;50.980;13.892;2022-09-17T16:45:00;50774.28;;;-142.97;48.68
8451;BME280;4262;50.980;13.892;2022-09-17T16:47:28;50758.69;;;-142.97;49.08
8451;BME280;4262;50.980;13.892;2022-09-17T16:49:55;50789.88;;;-142.97;49.36
8451;BME280;4262;50.980;13.892;2022-09-17T16:52:22;50805.50;;;-142.97;49.82
8451;BME280;4262;50.980;13.892;2022-09-17T16:54:49;50764.53;;;-142.97;50.33
8451;BME280;4262;50.980;13.892;2022-09-17T16:57:16;50774.28;;;-142.97;50.34
8451;BME280;4262;50.980;13.892;2022-09-17T16:59:44;50791.84;;;-142.97;51.22
8451;BME280;4262;50.980;13.892;2022-09-17T17:02:10;50780.13;;;-142.97;50.47
8451;BME280;4262;50.980;13.892;2022-09-17T17:04:37;50787.94;;;-142.97;50.49
8451;BME280;4262;50.980;13.892;2022-09-17T17:07:03;50815.22;;;-142.97;51.07
8451;BME280;4262;50.980;13.892;2022-09-17T17:09:30;50803.53;;;-142.97;51.41
8451;BME280;4262;50.980;13.892;2022-09-17T17:11:57;50817.19;;;-142.97;51.10
8451;BME280;4262;50.980;13.892;2022-09-17T17:14:24;50758.69;;;-142.97;51.11
8451;BME280;4262;50.980;13.892;2022-09-17T17:16:52;50776.25;;;-142.97;51.37
8451;BME280;4262;50.980;13.892;2022-09-17T17:19:19;50809.38;;;-142.97;51.65
8451;BME280;4262;50.980;13.892;2022-09-17T17:21:48;50805.50;;;-142.97;51.55
8451;BME280;4262;50.980;13.892;2022-09-17T17:24:15;50760.63;;;-142.97;51.46
8451;BME280;4262;50.980;13.892;2022-09-17T17:26:42;50809.38;;;-142.97;52.22
8451;BME280;4262;50.980;13.892;2022-09-17T17:29:09;50772.34;;;-142.97;51.52
8451;BME280;4262;50.980;13.892;2022-09-17T17:31:36;50785.97;;;-142.97;52.50
8451;BME280;4262;50.980;13.892;2022-09-17T17:34:04;50785.97;;;-142.97;53.66
8451;BME280;4262;50.980;13.892;2022-09-17T17:36:31;50795.75;;;-142.97;52.97
8451;BME280;4262;50.980;13.892;2022-09-17T17:38:58;50807.44;;;-142.97;53.47
8451;BME280;4262;50.980;13.892;2022-09-17T17:41:25;50787.94;;;-142.97;53.74
8451;BME280;4262;50.980;13.892;2022-09-17T17:43:53;50770.38;;;-142.97;53.03
8451;BME280;4262;50.980;13.892;2022-09-17T17:46:20;50778.19;;;-142.97;53.51
8451;BME280;4262;50.980;13.892;2022-09-17T17:48:47;50750.88;;;-142.97;53.39
8451;BME280;4262;50.980;13.892;2022-09-17T17:51:16;50801.59;;;-142.97;52.36
8451;BME280;4262;50.980;13.892;2022-09-17T17:53:44;50760.63;;;-142.97;52.77
8451;BME280;4262;50.980;13.892;2022-09-17T17:56:11;50813.28;;;-142.97;53.63
8451;BME280;4262;50.980;13.892;2022-09-17T17:58:38;50789.88;;;-142.97;52.98
8451;BME280;4262;50.980;13.892;2022-09-17T18:01:09;50787.94;;;-142.97;53.08
8451;BME280;4262;50.980;13.892;2022-09-17T18:03:36;50807.44;;;-142.97;52.79
8451;BME280;4262;50.980;13.892;2022-09-17T18:06:04;50780.13;;;-142.97;53.13
8451;BME280;4262;50.980;13.892;2022-09-17T18:08:34;50805.50;;;-142.97;53.64
8451;BME280;4262;50.980;13.892;2022-09-17T18:11:01;50778.19;;;-142.97;53.58
8451;BME280;4262;50.980;13.892;2022-09-17T18:13:29;50778.19;;;-142.97;53.47
8451;BME280;4262;50.980;13.892;2022-09-17T18:15:58;50789.88;;;-142.97;53.50
8451;BME280;4262;50.980;13.892;2022-09-17T18:18:30;50807.44;;;-142.97;53.59
8451;BME280;4262;50.980;13.892;2022-09-17T18:20:59;50762.59;;;-142.97;53.71
8451;BME280;4262;50.980;13.892;2022-09-17T18:23:26;50799.63;;;-142.97;54.38
8451;BME280;4262;50.980;13.892;2022-09-17T18:25:55;50803.53;;;-142.97;54.17
8451;BME280;4262;50.980;13.892;2022-09-17T18:28:23;50778.19;;;-142.97;54.18
8451;BME280;4262;50.980;13.892;2022-09-17T18:30:50;50764.53;;;-142.97;54.40
8451;BME280;4262;50.980;13.892;2022-09-17T18:33:18;50803.53;;;-142.97;54.92
8451;BME280;4262;50.980;13.892;2022-09-17T18:35:45;50756.75;;;-142.97;54.85
8451;BME280;4262;50.980;13.892;2022-09-17T18:38:12;50784.03;;;-142.97;55.16
8451;BME280;4262;50.980;13.892;2022-09-17T18:40:39;50748.94;;;-142.97;55.52
8451;BME280;4262;50.980;13.892;2022-09-17T18:43:08;50787.94;;;-142.97;55.91
8451;BME280;4262;50.980;13.892;2022-09-17T18:45:34;50778.19;;;-142.97;55.98
8451;BME280;4262;50.980;13.892;2022-09-17T18:48:03;50778.19;;;-142.97;56.15
8451;BME280;4262;50.980;13.892;2022-09-17T18:50:30;50764.53;;;-142.97;56.18
8451;BME280;4262;50.980;13.892;2022-09-17T18:52:57;50782.09;;;-142.97;56.46
8451;BME280;4262;50.980;13.892;2022-09-17T18:55:24;50748.94;;;-142.97;56.79
8451;BME280;4262;50.980;13.892;2022-09-17T18:57:51;50785.97;;;-142.97;56.39
8451;BME280;4262;50.980;13.892;2022-09-17T19:00:20;50778.19;;;-142.97;56.55
8451;BME280;4262;50.980;13.892;2022-09-17T19:02:48;50805.50;;;-142.97;56.08
8451;BME280;4262;50.980;13.892;2022-09-17T19:05:16;50797.69;;;-142.97;56.22
8451;BME280;4262;50.980;13.892;2022-09-17T19:07:43;50758.69;;;-142.97;57.30
8451;BME280;4262;50.980;13.892;2022-09-17T19:10:11;50807.44;;;-142.97;56.75
8451;BME280;4262;50.980;13.892;2022-09-17T19:12:38;50764.53;;;-142.97;56.97
8451;BME280;4262;50.980;13.892;2022-09-17T19:15:05;50795.75;;;-142.97;57.16
8451;BME280;4262;50.980;13.892;2022-09-17T19:17:34;50785.97;;;-142.97;57.00
8451;BME280;4262;50.980;13.892;2022-09-17T19:20:00;50768.44;;;-142.97;57.21
8451;BME280;4262;50.980;13.892;2022-09-17T19:22:27;50756.75;;;-142.97;57.15
8451;BME280;4262;50.980;13.892;2022-09-17T19:24:54;50799.63;;;-142.97;57.47
8451;BME280;4262;50.980;13.892;2022-09-17T19:27:21;50785.97;;;-142.97;57.36
8451;BME280;4262;50.980;13.892;2022-09-17T19:29:47;50817.19;;;-142.97;58.20
8451;BME280;4262;50.980;13.892;2022-09-17T19:32:14;50793.78;;;-142.97;57.57
8451;BME280;4262;50.980;13.892;2022-09-17T19:34:42;50764.53;;;-142.97;57.77
8451;BME280;4262;50.980;13.892;2022-09-17T19:37:09;50778.19;;;-142.97;57.51
8451;BME280;4262;50.980;13.892;2022-09-17T19:39:36;50785.97;;;-142.97;57.91
8451;BME280;4262;50.980;13.892;2022-09-17T19:42:03;50795.75;;;-142.97;57.88
8451;BME280;4262;50.980;13.892;2022-09-17T19:44:30;50782.09;;;-142.97;57.57
8451;BME280;4262;50.980;13.892;2022-09-17T19:46:56;50785.97;;;-142.97;58.06
8451;BME280;4262;50.980;13.892;2022-09-17T19:49:23;50764.53;;;-142.97;58.07
8451;BME280;4262;50.980;13.892;2022-09-17T19:51:51;50778.19;;;-142.97;57.66
8451;BME280;4262;50.980;13.892;2022-09-17T19:54:18;50785.97;;;-142.97;58.01
8451;BME280;4262;50.980;13.892;2022-09-17T19:56:44;50795.75;;;-142.97;58.23
8451;BME280;4262;50.980;13.892;2022-09-17T19:59:12;50793.78;;;-142.97;58.16
8451;BME280;4262;50.980;13.892;2022-09-17T20:01:39;50791.84;;;-142.97;57.70
8451;BME280;4262;50.980;13.892;2022-09-17T20:04:06;50791.84;;;-142.97;58.22
8451;BME280;4262;50.980;13.892;2022-09-17T20:06:33;50797.69;;;-142.97;58.36
8451;BME280;4262;50.980;13.892;2022-09-17T20:09:02;50789.88;;;-142.97;59.09
8451;BME280;4262;50.980;13.892;2022-09-17T20:11:28;50782.09;;;-142.97;59.50
8451;BME280;4262;50.980;13.892;2022-09-17T20:13:56;50768.44;;;-142.97;60.33
8451;BME280;4262;50.980;13.892;2022-09-17T20:16:23;50797.69;;;-142.97;61.51
8451;BME280;4262;50.980;13.892;2022-09-17T20:18:49;50756.75;;;-142.97;63.25
8451;BME280;4262;50.980;13.892;2022-09-17T20:21:18;50760.63;;;-142.97;62.77
8451;BME280;4262;50.980;13.892;2022-09-17T20:23:46;50752.84;;;-142.97;64.04
8451;BME280;4262;50.980;13.892;2022-09-17T20:26:14;50784.03;;;-142.97;64.20
8451;BME280;4262;50.980;13.892;2022-09-17T20:28:42;50805.50;;;-142.97;64.52
8451;BME280;4262;50.980;13.892;2022-09-17T20:31:10;50791.84;;;-142.97;64.29
8451;BME280;4262;50.980;13.892;2022-09-17T20:33:37;50782.09;;;-142.97;64.34
8451;BME280;4262;50.980;13.892;2022-09-17T20:36:06;50760.63;;;-142.97;64.91
8451;BME280;4262;50.980;13.892;2022-09-17T20:38:33;50784.03;;;-142.97;66.15
8451;BME280;4262;50.980;13.892;2022-09-17T20:41:00;50805.50;;;-142.97;66.26
8451;BME280;4262;50.980;13.892;2022-09-17T20:43:31;50799.63;;;-142.97;67.28
8451;BME280;4262;50.980;13.892;2022-09-17T20:45:58;50793.78;;;-142.97;67.12
8451;BME280;4262;50.980;13.892;2022-09-17T20:48:26;50774.28;;;-142.97;67.53
8451;BME280;4262;50.980;13.892;2022-09-17T20:50:54;50793.78;;;-142.97;67.72
8451;BME280;4262;50.980;13.892;2022-09-17T20:53:22;50747.00;;;-142.97;67.69
8451;BME280;4262;50.980;13.892;2022-09-17T20:55:53;50747.00;;;-142.97;68.14
8451;BME280;4262;50.980;13.892;2022-09-17T20:58:21;50758.69;;;-142.97;68.36
